sensor_id;sensor_type;location;lat;lon;timestamp;P1;durP1;ratioP1;P2;durP2;ratioP2
11084;SDS011;5596;46.826;8.650;2022-09-01T00:01:25;3.80;;;3.50;;
11084;SDS011;5596;46.826;8.650;2022-09-01T00:03:53;4.70;;;3.50;;
11084;SDS011;5596;46.826;8.650;2022-09-01T00:06:24;3.63;;;3.33;;
11084;SDS011;5596;46.826;8.650;2022-09-01T00:08:51;3.50;;;3.20;;
11084;SDS011;5596;46.826;8.650;2022-09-01T00:11:21;7.53;;;3.60;;
11084;SDS011;5596;46.826;8.650;2022-09-01T00:13:51;6.33;;;3.03;;
11084;SDS011;5596;46.826;8.650;2022-09-01T00:16:19;10.13;;;3.13;;
11084;SDS011;5596;46.826;8.650;2022-09-01T00:18:48;5.93;;;3.03;;
11084;SDS011;5596;46.826;8.650;2022-09-01T00:21:18;4.03;;;2.97;;
11084;SDS011;5596;46.826;8.650;2022-09-01T00:23:49;3.70;;;3.00;;
11084;SDS011;5596;46.826;8.650;2022-09-01T00:26:16;3.17;;;2.90;;
11084;SDS011;5596;46.826;8.650;2022-09-01T00:28:43;4.53;;;3.17;;
11084;SDS011;5596;46.826;8.650;2022-09-01T00:31:12;3.40;;;2.87;;
11084;SDS011;5596;46.826;8.650;2022-09-01T00:33:40;3.60;;;2.90;;
11084;SDS011;5596;46.826;8.650;2022-09-01T00:36:08;4.90;;;3.23;;
11084;SDS011;5596;46.826;8.650;2022-09-01T00:38:35;6.80;;;3.30;;
11084;SDS011;5596;46.826;8.650;2022-09-01T00:41:03;6.50;;;3.40;;
11084;SDS011;5596;46.826;8.650;2022-09-01T00:43:36;4.67;;;3.20;;
11084;SDS011;5596;46.826;8.650;2022-09-01T00:46:05;5.37;;;3.43;;
11084;SDS011;5596;46.826;8.650;2022-09-01T00:48:36;3.67;;;3.37;;
11084;SDS011;5596;46.826;8.650;2022-09-01T00:51:03;3.33;;;3.03;;
11084;SDS011;5596;46.826;8.650;2022-09-01T00:53:32;3.60;;;3.00;;
11084;SDS011;5596;46.826;8.650;2022-09-01T00:56:01;2.80;;;2.50;;
11084;SDS011;5596;46.826;8.650;2022-09-01T00:58:29;3.37;;;2.87;;
11084;SDS011;5596;46.826;8.650;2022-09-01T01:00:56;4.50;;;3.30;;
11084;SDS011;5596;46.826;8.650;2022-09-01T01:03:24;5.17;;;3.00;;
11084;SDS011;5596;46.826;8.650;2022-09-01T01:05:53;3.60;;;3.30;;
11084;SDS011;5596;46.826;8.650;2022-09-01T01:08:24;3.90;;;3.23;;
11084;SDS011;5596;46.826;8.650;2022-09-01T01:10:58;3.43;;;3.00;;
11084;SDS011;5596;46.826;8.650;2022-09-01T01:13:27;3.93;;;2.93;;
11084;SDS011;5596;46.826;8.650;2022-09-01T01:15:56;4.00;;;2.83;;
11084;SDS011;5596;46.826;8.650;2022-09-01T01:18:24;5.13;;;3.23;;
11084;SDS011;5596;46.826;8.650;2022-09-01T01:20:58;4.57;;;2.93;;
11084;SDS011;5596;46.826;8.650;2022-09-01T01:23:48;4.10;;;3.03;;
11084;SDS011;5596;46.826;8.650;2022-09-01T01:26:22;3.97;;;3.50;;
11084;SDS011;5596;46.826;8.650;2022-09-01T01:28:49;6.33;;;3.63;;
11084;SDS011;5596;46.826;8.650;2022-09-01T01:31:20;3.53;;;3.23;;
11084;SDS011;5596;46.826;8.650;2022-09-01T01:33:49;4.63;;;3.30;;
11084;SDS011;5596;46.826;8.650;2022-09-01T01:36:18;4.33;;;3.50;;
11084;SDS011;5596;46.826;8.650;2022-09-01T01:38:58;4.17;;;3.77;;
11084;SDS011;5596;46.826;8.650;2022-09-01T01:41:30;6.57;;;3.47;;
11084;SDS011;5596;46.826;8.650;2022-09-01T01:43:59;4.10;;;3.30;;
11084;SDS011;5596;46.826;8.650;2022-09-01T01:46:29;3.97;;;3.57;;
11084;SDS011;5596;46.826;8.650;2022-09-01T01:48:57;3.90;;;3.53;;
11084;SDS011;5596;46.826;8.650;2022-09-01T01:51:27;6.63;;;3.67;;
11084;SDS011;5596;46.826;8.650;2022-09-01T01:53:58;5.30;;;3.67;;
11084;SDS011;5596;46.826;8.650;2022-09-01T01:56:31;4.20;;;3.50;;
11084;SDS011;5596;46.826;8.650;2022-09-01T01:59:04;6.60;;;3.77;;
11084;SDS011;5596;46.826;8.650;2022-09-01T02:01:32;6.43;;;3.40;;
11084;SDS011;5596;46.826;8.650;2022-09-01T02:03:59;3.30;;;3.00;;
11084;SDS011;5596;46.826;8.650;2022-09-01T02:06:31;3.30;;;3.00;;
11084;SDS011;5596;46.826;8.650;2022-09-01T02:08:59;5.97;;;3.13;;
11084;SDS011;5596;46.826;8.650;2022-09-01T02:11:28;4.67;;;3.33;;
11084;SDS011;5596;46.826;8.650;2022-09-01T02:13:59;3.43;;;2.90;;
11084;SDS011;5596;46.826;8.650;2022-09-01T02:16:30;4.40;;;2.80;;
11084;SDS011;5596;46.826;8.650;2022-09-01T02:18:59;4.10;;;3.13;;
11084;SDS011;5596;46.826;8.650;2022-09-01T02:21:27;4.20;;;3.10;;
11084;SDS011;5596;46.826;8.650;2022-09-01T02:23:56;5.63;;;3.27;;
11084;SDS011;5596;46.826;8.650;2022-09-01T02:26:26;3.10;;;2.80;;
11084;SDS011;5596;46.826;8.650;2022-09-01T02:28:56;3.90;;;3.50;;
11084;SDS011;5596;46.826;8.650;2022-09-01T02:31:27;4.63;;;2.77;;
11084;SDS011;5596;46.826;8.650;2022-09-01T02:33:58;4.63;;;3.40;;
11084;SDS011;5596;46.826;8.650;2022-09-01T02:36:26;4.80;;;3.10;;
11084;SDS011;5596;46.826;8.650;2022-09-01T02:38:57;4.13;;;2.83;;
11084;SDS011;5596;46.826;8.650;2022-09-01T02:41:24;4.40;;;2.90;;
11084;SDS011;5596;46.826;8.650;2022-09-01T02:43:53;4.20;;;3.00;;
11084;SDS011;5596;46.826;8.650;2022-09-01T02:46:22;8.30;;;3.23;;
11084;SDS011;5596;46.826;8.650;2022-09-01T02:48:51;3.80;;;3.00;;
11084;SDS011;5596;46.826;8.650;2022-09-01T02:51:20;4.37;;;3.30;;
11084;SDS011;5596;46.826;8.650;2022-09-01T02:53:50;3.73;;;2.90;;
11084;SDS011;5596;46.826;8.650;2022-09-01T02:56:18;5.10;;;2.80;;
11084;SDS011;5596;46.826;8.650;2022-09-01T02:58:48;8.00;;;3.23;;
11084;SDS011;5596;46.826;8.650;2022-09-01T03:01:17;3.70;;;3.00;;
11084;SDS011;5596;46.826;8.650;2022-09-01T03:03:52;4.23;;;2.87;;
11084;SDS011;5596;46.826;8.650;2022-09-01T03:06:21;6.10;;;3.73;;
11084;SDS011;5596;46.826;8.650;2022-09-01T03:08:49;6.27;;;3.43;;
11084;SDS011;5596;46.826;8.650;2022-09-01T03:11:18;6.97;;;3.63;;
11084;SDS011;5596;46.826;8.650;2022-09-01T03:13:45;4.77;;;3.63;;
11084;SDS011;5596;46.826;8.650;2022-09-01T03:16:12;4.40;;;3.20;;
11084;SDS011;5596;46.826;8.650;2022-09-01T03:18:40;6.27;;;3.87;;
11084;SDS011;5596;46.826;8.650;2022-09-01T03:21:09;6.90;;;3.63;;
11084;SDS011;5596;46.826;8.650;2022-09-01T03:23:42;4.90;;;3.50;;
11084;SDS011;5596;46.826;8.650;2022-09-01T03:26:11;4.77;;;3.57;;
11084;SDS011;5596;46.826;8.650;2022-09-01T03:28:39;4.40;;;3.63;;
11084;SDS011;5596;46.826;8.650;2022-09-01T03:31:07;3.53;;;3.23;;
11084;SDS011;5596;46.826;8.650;2022-09-01T03:33:35;6.03;;;3.60;;
11084;SDS011;5596;46.826;8.650;2022-09-01T03:36:04;7.93;;;3.50;;
11084;SDS011;5596;46.826;8.650;2022-09-01T03:38:33;5.20;;;4.17;;
11084;SDS011;5596;46.826;8.650;2022-09-01T03:41:03;5.40;;;3.70;;
11084;SDS011;5596;46.826;8.650;2022-09-01T03:43:32;4.27;;;3.53;;
11084;SDS011;5596;46.826;8.650;2022-09-01T03:45:59;5.90;;;3.70;;
11084;SDS011;5596;46.826;8.650;2022-09-01T03:48:27;3.80;;;3.40;;
11084;SDS011;5596;46.826;8.650;2022-09-01T03:50:57;3.60;;;3.03;;
11084;SDS011;5596;46.826;8.650;2022-09-01T03:53:28;4.63;;;3.70;;
11084;SDS011;5596;46.826;8.650;2022-09-01T03:55:59;4.80;;;3.60;;
11084;SDS011;5596;46.826;8.650;2022-09-01T03:58:30;6.67;;;3.33;;
11084;SDS011;5596;46.826;8.650;2022-09-01T04:00:58;5.63;;;3.50;;
11084;SDS011;5596;46.826;8.650;2022-09-01T04:03:28;6.37;;;3.87;;
11084;SDS011;5596;46.826;8.650;2022-09-01T04:05:58;3.93;;;3.30;;
11084;SDS011;5596;46.826;8.650;2022-09-01T04:08:27;3.97;;;3.00;;
11084;SDS011;5596;46.826;8.650;2022-09-01T04:10:56;5.03;;;3.47;;
11084;SDS011;5596;46.826;8.650;2022-09-01T04:13:27;5.87;;;3.47;;
11084;SDS011;5596;46.826;8.650;2022-09-01T04:15:56;4.27;;;3.10;;
11084;SDS011;5596;46.826;8.650;2022-09-01T04:18:24;3.43;;;3.10;;
11084;SDS011;5596;46.826;8.650;2022-09-01T04:20:51;6.87;;;3.77;;
11084;SDS011;5596;46.826;8.650;2022-09-01T04:23:22;3.50;;;3.03;;
11084;SDS011;5596;46.826;8.650;2022-09-01T04:25:53;3.47;;;3.17;;
11084;SDS011;5596;46.826;8.650;2022-09-01T04:28:30;6.00;;;3.23;;
11084;SDS011;5596;46.826;8.650;2022-09-01T04:30:59;5.33;;;3.10;;
11084;SDS011;5596;46.826;8.650;2022-09-01T04:33:34;5.83;;;3.47;;
11084;SDS011;5596;46.826;8.650;2022-09-01T04:36:11;4.80;;;2.83;;
11084;SDS011;5596;46.826;8.650;2022-09-01T04:38:44;4.37;;;3.30;;
11084;SDS011;5596;46.826;8.650;2022-09-01T04:41:11;3.30;;;3.00;;
11084;SDS011;5596;46.826;8.650;2022-09-01T04:43:43;4.83;;;3.10;;
11084;SDS011;5596;46.826;8.650;2022-09-01T04:46:12;4.57;;;2.87;;
11084;SDS011;5596;46.826;8.650;2022-09-01T04:48:39;5.50;;;2.90;;
11084;SDS011;5596;46.826;8.650;2022-09-01T04:51:10;3.10;;;2.80;;
11084;SDS011;5596;46.826;8.650;2022-09-01T04:54:07;4.17;;;2.83;;
11084;SDS011;5596;46.826;8.650;2022-09-01T04:56:36;4.30;;;2.73;;
11084;SDS011;5596;46.826;8.650;2022-09-01T04:59:12;3.83;;;3.23;;
11084;SDS011;5596;46.826;8.650;2022-09-01T05:01:42;5.87;;;3.20;;
11084;SDS011;5596;46.826;8.650;2022-09-01T05:04:15;4.07;;;2.87;;
11084;SDS011;5596;46.826;8.650;2022-09-01T05:06:45;4.17;;;3.27;;
11084;SDS011;5596;46.826;8.650;2022-09-01T05:09:17;4.00;;;2.97;;
11084;SDS011;5596;46.826;8.650;2022-09-01T05:12:01;8.57;;;3.67;;
11084;SDS011;5596;46.826;8.650;2022-09-01T05:14:38;4.17;;;3.30;;
11084;SDS011;5596;46.826;8.650;2022-09-01T05:17:08;4.53;;;3.20;;
11084;SDS011;5596;46.826;8.650;2022-09-01T05:19:39;5.23;;;3.57;;
11084;SDS011;5596;46.826;8.650;2022-09-01T05:22:08;3.40;;;3.10;;
11084;SDS011;5596;46.826;8.650;2022-09-01T05:24:41;3.63;;;3.27;;
11084;SDS011;5596;46.826;8.650;2022-09-01T05:27:09;6.13;;;3.43;;
11084;SDS011;5596;46.826;8.650;2022-09-01T05:29:38;8.43;;;3.33;;
11084;SDS011;5596;46.826;8.650;2022-09-01T05:32:07;4.47;;;3.00;;
11084;SDS011;5596;46.826;8.650;2022-09-01T05:34:36;6.37;;;3.17;;
11084;SDS011;5596;46.826;8.650;2022-09-01T05:37:04;4.07;;;2.80;;
11084;SDS011;5596;46.826;8.650;2022-09-01T05:39:36;6.07;;;3.23;;
11084;SDS011;5596;46.826;8.650;2022-09-01T05:42:04;6.87;;;3.20;;
11084;SDS011;5596;46.826;8.650;2022-09-01T05:44:33;4.43;;;3.57;;
11084;SDS011;5596;46.826;8.650;2022-09-01T05:47:02;9.90;;;4.30;;
11084;SDS011;5596;46.826;8.650;2022-09-01T05:49:30;4.57;;;3.80;;
11084;SDS011;5596;46.826;8.650;2022-09-01T05:52:01;3.77;;;3.20;;
11084;SDS011;5596;46.826;8.650;2022-09-01T05:54:29;5.20;;;3.50;;
11084;SDS011;5596;46.826;8.650;2022-09-01T05:56:57;7.97;;;3.23;;
11084;SDS011;5596;46.826;8.650;2022-09-01T05:59:25;6.47;;;3.57;;
11084;SDS011;5596;46.826;8.650;2022-09-01T06:02:10;8.43;;;3.93;;
11084;SDS011;5596;46.826;8.650;2022-09-01T06:04:37;7.13;;;3.97;;
11084;SDS011;5596;46.826;8.650;2022-09-01T06:07:10;5.07;;;3.50;;
11084;SDS011;5596;46.826;8.650;2022-09-01T06:09:42;6.17;;;3.60;;
11084;SDS011;5596;46.826;8.650;2022-09-01T06:12:11;4.60;;;3.30;;
11084;SDS011;5596;46.826;8.650;2022-09-01T06:14:44;4.40;;;3.50;;
11084;SDS011;5596;46.826;8.650;2022-09-01T06:17:15;3.63;;;3.00;;
11084;SDS011;5596;46.826;8.650;2022-09-01T06:19:46;4.83;;;3.13;;
11084;SDS011;5596;46.826;8.650;2022-09-01T06:22:14;6.90;;;3.33;;
11084;SDS011;5596;46.826;8.650;2022-09-01T06:24:41;4.37;;;3.50;;
11084;SDS011;5596;46.826;8.650;2022-09-01T06:27:10;3.33;;;3.00;;
11084;SDS011;5596;46.826;8.650;2022-09-01T06:29:38;3.87;;;3.47;;
11084;SDS011;5596;46.826;8.650;2022-09-01T06:32:06;4.67;;;3.60;;
11084;SDS011;5596;46.826;8.650;2022-09-01T06:34:37;4.63;;;3.10;;
11084;SDS011;5596;46.826;8.650;2022-09-01T06:37:06;6.33;;;3.67;;
11084;SDS011;5596;46.826;8.650;2022-09-01T06:39:34;4.80;;;2.83;;
11084;SDS011;5596;46.826;8.650;2022-09-01T06:42:01;7.73;;;2.93;;
11084;SDS011;5596;46.826;8.650;2022-09-01T06:44:40;4.80;;;3.43;;
11084;SDS011;5596;46.826;8.650;2022-09-01T06:47:07;4.80;;;2.70;;
11084;SDS011;5596;46.826;8.650;2022-09-01T06:49:36;3.47;;;2.73;;
11084;SDS011;5596;46.826;8.650;2022-09-01T06:52:09;4.10;;;3.07;;
11084;SDS011;5596;46.826;8.650;2022-09-01T06:54:39;5.33;;;2.97;;
11084;SDS011;5596;46.826;8.650;2022-09-01T06:57:08;4.03;;;3.03;;
11084;SDS011;5596;46.826;8.650;2022-09-01T06:59:35;3.87;;;2.73;;
11084;SDS011;5596;46.826;8.650;2022-09-01T07:02:03;4.00;;;3.03;;
11084;SDS011;5596;46.826;8.650;2022-09-01T07:04:55;2.87;;;2.63;;
11084;SDS011;5596;46.826;8.650;2022-09-01T07:07:22;3.10;;;2.77;;
11084;SDS011;5596;46.826;8.650;2022-09-01T07:10:39;3.93;;;2.57;;
11084;SDS011;5596;46.826;8.650;2022-09-01T07:13:16;3.80;;;2.97;;
11084;SDS011;5596;46.826;8.650;2022-09-01T07:15:47;3.63;;;3.00;;
11084;SDS011;5596;46.826;8.650;2022-09-01T07:18:16;2.67;;;2.47;;
11084;SDS011;5596;46.826;8.650;2022-09-01T07:20:47;3.53;;;2.60;;
11084;SDS011;5596;46.826;8.650;2022-09-01T07:23:15;5.20;;;2.83;;
11084;SDS011;5596;46.826;8.650;2022-09-01T07:25:45;6.17;;;3.03;;
11084;SDS011;5596;46.826;8.650;2022-09-01T07:28:28;4.83;;;3.00;;
11084;SDS011;5596;46.826;8.650;2022-09-01T07:30:57;4.47;;;2.90;;
11084;SDS011;5596;46.826;8.650;2022-09-01T07:33:26;3.40;;;3.10;;
11084;SDS011;5596;46.826;8.650;2022-09-01T07:35:57;3.90;;;2.90;;
11084;SDS011;5596;46.826;8.650;2022-09-01T07:38:24;4.93;;;3.43;;
11084;SDS011;5596;46.826;8.650;2022-09-01T07:40:53;4.40;;;3.37;;
11084;SDS011;5596;46.826;8.650;2022-09-01T07:43:39;8.27;;;4.00;;
11084;SDS011;5596;46.826;8.650;2022-09-01T07:46:28;4.30;;;3.80;;
11084;SDS011;5596;46.826;8.650;2022-09-01T07:48:57;4.93;;;4.00;;
11084;SDS011;5596;46.826;8.650;2022-09-01T07:51:29;4.97;;;4.20;;
11084;SDS011;5596;46.826;8.650;2022-09-01T07:53:57;5.20;;;4.70;;
11084;SDS011;5596;46.826;8.650;2022-09-01T07:56:27;4.93;;;4.47;;
11084;SDS011;5596;46.826;8.650;2022-09-01T07:58:56;5.17;;;4.67;;
11084;SDS011;5596;46.826;8.650;2022-09-01T08:01:24;7.90;;;5.47;;
11084;SDS011;5596;46.826;8.650;2022-09-01T08:03:54;6.60;;;4.60;;
11084;SDS011;5596;46.826;8.650;2022-09-01T08:06:23;5.27;;;4.37;;
11084;SDS011;5596;46.826;8.650;2022-09-01T08:08:54;6.80;;;4.57;;
11084;SDS011;5596;46.826;8.650;2022-09-01T08:11:26;6.43;;;4.90;;
11084;SDS011;5596;46.826;8.650;2022-09-01T08:13:54;9.53;;;4.80;;
11084;SDS011;5596;46.826;8.650;2022-09-01T08:16:25;6.90;;;5.38;;
11084;SDS011;5596;46.826;8.650;2022-09-01T08:18:54;8.88;;;5.82;;
11084;SDS011;5596;46.826;8.650;2022-09-01T08:21:26;8.13;;;5.55;;
11084;SDS011;5596;46.826;8.650;2022-09-01T08:24:00;7.60;;;6.20;;
11084;SDS011;5596;46.826;8.650;2022-09-01T08:26:29;8.85;;;5.95;;
11084;SDS011;5596;46.826;8.650;2022-09-01T08:28:58;6.40;;;5.75;;
11084;SDS011;5596;46.826;8.650;2022-09-01T08:31:32;6.28;;;5.57;;
11084;SDS011;5596;46.826;8.650;2022-09-01T08:34:00;8.05;;;5.82;;
11084;SDS011;5596;46.826;8.650;2022-09-01T08:36:29;7.03;;;5.95;;
11084;SDS011;5596;46.826;8.650;2022-09-01T08:38:57;9.23;;;6.13;;
11084;SDS011;5596;46.826;8.650;2022-09-01T08:41:28;9.25;;;6.30;;
11084;SDS011;5596;46.826;8.650;2022-09-01T08:44:07;8.98;;;6.55;;
11084;SDS011;5596;46.826;8.650;2022-09-01T08:46:42;7.82;;;5.90;;
11084;SDS011;5596;46.826;8.650;2022-09-01T08:49:13;10.15;;;6.28;;
11084;SDS011;5596;46.826;8.650;2022-09-01T08:52:01;8.40;;;6.85;;
11084;SDS011;5596;46.826;8.650;2022-09-01T08:54:38;7.20;;;6.50;;
11084;SDS011;5596;46.826;8.650;2022-09-01T08:57:15;7.18;;;6.47;;
11084;SDS011;5596;46.826;8.650;2022-09-01T09:00:15;6.88;;;5.80;;
11084;SDS011;5596;46.826;8.650;2022-09-01T09:02:50;11.32;;;6.60;;
11084;SDS011;5596;46.826;8.650;2022-09-01T09:05:29;6.63;;;5.93;;
11084;SDS011;5596;46.826;8.650;2022-09-01T09:08:07;7.10;;;5.97;;
11084;SDS011;5596;46.826;8.650;2022-09-01T09:10:48;7.82;;;6.22;;
11084;SDS011;5596;46.826;8.650;2022-09-01T09:13:26;8.02;;;6.03;;
11084;SDS011;5596;46.826;8.650;2022-09-01T09:16:05;8.45;;;6.72;;
11084;SDS011;5596;46.826;8.650;2022-09-01T09:18:37;7.22;;;6.32;;
11084;SDS011;5596;46.826;8.650;2022-09-01T09:21:11;8.98;;;6.68;;
11084;SDS011;5596;46.826;8.650;2022-09-01T09:23:43;6.43;;;5.82;;
11084;SDS011;5596;46.826;8.650;2022-09-01T09:26:13;7.80;;;7.00;;
11084;SDS011;5596;46.826;8.650;2022-09-01T09:28:46;10.00;;;6.65;;
11084;SDS011;5596;46.826;8.650;2022-09-01T09:31:27;8.77;;;6.85;;
11084;SDS011;5596;46.826;8.650;2022-09-01T09:33:57;8.75;;;7.40;;
11084;SDS011;5596;46.826;8.650;2022-09-01T09:36:28;8.02;;;5.97;;
11084;SDS011;5596;46.826;8.650;2022-09-01T09:39:06;7.47;;;5.80;;
11084;SDS011;5596;46.826;8.650;2022-09-01T09:41:39;6.30;;;5.68;;
11084;SDS011;5596;46.826;8.650;2022-09-01T09:44:18;6.90;;;6.20;;
11084;SDS011;5596;46.826;8.650;2022-09-01T09:46:51;7.70;;;6.57;;
11084;SDS011;5596;46.826;8.650;2022-09-01T09:49:18;6.95;;;6.10;;
11084;SDS011;5596;46.826;8.650;2022-09-01T09:51:50;8.20;;;6.60;;
11084;SDS011;5596;46.826;8.650;2022-09-01T09:54:22;9.77;;;6.65;;
11084;SDS011;5596;46.826;8.650;2022-09-01T09:57:02;8.63;;;5.97;;
11084;SDS011;5596;46.826;8.650;2022-09-01T09:59:38;8.05;;;7.05;;
11084;SDS011;5596;46.826;8.650;2022-09-01T10:04:58;7.32;;;6.63;;
11084;SDS011;5596;46.826;8.650;2022-09-01T10:07:28;7.28;;;6.57;;
11084;SDS011;5596;46.826;8.650;2022-09-01T10:09:58;7.70;;;6.65;;
11084;SDS011;5596;46.826;8.650;2022-09-01T10:12:27;6.47;;;5.88;;
11084;SDS011;5596;46.826;8.650;2022-09-01T10:14:59;9.77;;;7.30;;
11084;SDS011;5596;46.826;8.650;2022-09-01T10:17:30;9.90;;;6.78;;
11084;SDS011;5596;46.826;8.650;2022-09-01T10:20:00;7.35;;;6.25;;
11084;SDS011;5596;46.826;8.650;2022-09-01T10:22:31;7.80;;;6.85;;
11084;SDS011;5596;46.826;8.650;2022-09-01T10:25:00;8.43;;;6.80;;
11084;SDS011;5596;46.826;8.650;2022-09-01T10:27:29;8.38;;;7.57;;
11084;SDS011;5596;46.826;8.650;2022-09-01T10:30:03;8.43;;;6.75;;
11084;SDS011;5596;46.826;8.650;2022-09-01T10:32:34;8.10;;;5.88;;
11084;SDS011;5596;46.826;8.650;2022-09-01T10:35:06;7.50;;;6.75;;
11084;SDS011;5596;46.826;8.650;2022-09-01T10:37:36;7.53;;;6.40;;
11084;SDS011;5596;46.826;8.650;2022-09-01T10:40:10;6.57;;;5.88;;
11084;SDS011;5596;46.826;8.650;2022-09-01T10:43:21;7.75;;;6.80;;
11084;SDS011;5596;46.826;8.650;2022-09-01T10:45:57;6.65;;;5.95;;
11084;SDS011;5596;46.826;8.650;2022-09-01T10:48:28;8.30;;;6.53;;
11084;SDS011;5596;46.826;8.650;2022-09-01T10:54:02;6.55;;;5.85;;
11084;SDS011;5596;46.826;8.650;2022-09-01T10:56:35;6.47;;;5.65;;
11084;SDS011;5596;46.826;8.650;2022-09-01T10:59:05;7.88;;;6.50;;
11084;SDS011;5596;46.826;8.650;2022-09-01T11:07:36;7.25;;;6.47;;
11084;SDS011;5596;46.826;8.650;2022-09-01T11:10:13;6.35;;;5.75;;
11084;SDS011;5596;46.826;8.650;2022-09-01T11:13:02;7.20;;;5.40;;
11084;SDS011;5596;46.826;8.650;2022-09-01T11:15:47;8.50;;;5.57;;
11084;SDS011;5596;46.826;8.650;2022-09-01T11:18:16;7.68;;;5.45;;
11084;SDS011;5596;46.826;8.650;2022-09-01T11:20:50;6.28;;;5.60;;
11084;SDS011;5596;46.826;8.650;2022-09-01T11:23:21;7.00;;;6.30;;
11084;SDS011;5596;46.826;8.650;2022-09-01T11:25:51;6.72;;;5.22;;
11084;SDS011;5596;46.826;8.650;2022-09-01T11:31:22;7.07;;;5.03;;
11084;SDS011;5596;46.826;8.650;2022-09-01T11:34:11;5.97;;;5.47;;
11084;SDS011;5596;46.826;8.650;2022-09-01T11:36:54;5.78;;;4.70;;
11084;SDS011;5596;46.826;8.650;2022-09-01T11:39:35;5.80;;;5.20;;
11084;SDS011;5596;46.826;8.650;2022-09-01T11:42:08;5.88;;;5.13;;
11084;SDS011;5596;46.826;8.650;2022-09-01T11:44:44;6.45;;;5.18;;
11084;SDS011;5596;46.826;8.650;2022-09-01T11:47:17;6.03;;;4.95;;
11084;SDS011;5596;46.826;8.650;2022-09-01T11:49:51;4.95;;;4.53;;
11084;SDS011;5596;46.826;8.650;2022-09-01T11:52:21;6.32;;;4.85;;
11084;SDS011;5596;46.826;8.650;2022-09-01T11:54:50;5.20;;;4.70;;
11084;SDS011;5596;46.826;8.650;2022-09-01T11:57:20;5.22;;;4.72;;
11084;SDS011;5596;46.826;8.650;2022-09-01T11:59:49;5.25;;;4.75;;
11084;SDS011;5596;46.826;8.650;2022-09-01T12:02:18;8.32;;;5.13;;
11084;SDS011;5596;46.826;8.650;2022-09-01T12:04:47;5.35;;;4.85;;
11084;SDS011;5596;46.826;8.650;2022-09-01T12:07:24;6.60;;;4.88;;
11084;SDS011;5596;46.826;8.650;2022-09-01T12:09:55;5.03;;;4.30;;
11084;SDS011;5596;46.826;8.650;2022-09-01T12:12:27;7.32;;;5.55;;
11084;SDS011;5596;46.826;8.650;2022-09-01T12:14:57;5.40;;;4.90;;
11084;SDS011;5596;46.826;8.650;2022-09-01T12:17:26;4.97;;;4.53;;
11084;SDS011;5596;46.826;8.650;2022-09-01T12:19:53;4.72;;;4.32;;
11084;SDS011;5596;46.826;8.650;2022-09-01T12:22:20;5.97;;;5.15;;
11084;SDS011;5596;46.826;8.650;2022-09-01T12:24:50;7.38;;;5.32;;
11084;SDS011;5596;46.826;8.650;2022-09-01T12:27:19;5.63;;;5.13;;
11084;SDS011;5596;46.826;8.650;2022-09-01T12:29:48;5.43;;;4.93;;
11084;SDS011;5596;46.826;8.650;2022-09-01T12:32:16;5.72;;;4.60;;
11084;SDS011;5596;46.826;8.650;2022-09-01T12:34:44;6.40;;;4.43;;
11084;SDS011;5596;46.826;8.650;2022-09-01T12:37:18;5.50;;;5.00;;
11084;SDS011;5596;46.826;8.650;2022-09-01T12:39:47;4.97;;;4.53;;
11084;SDS011;5596;46.826;8.650;2022-09-01T12:42:24;5.30;;;4.70;;
11084;SDS011;5596;46.826;8.650;2022-09-01T12:44:55;5.15;;;4.68;;
11084;SDS011;5596;46.826;8.650;2022-09-01T12:47:43;5.07;;;4.53;;
11084;SDS011;5596;46.826;8.650;2022-09-01T12:53:18;5.63;;;5.00;;
11084;SDS011;5596;46.826;8.650;2022-09-01T12:55:56;6.15;;;4.72;;
11084;SDS011;5596;46.826;8.650;2022-09-01T12:58:28;5.68;;;5.05;;
11084;SDS011;5596;46.826;8.650;2022-09-01T13:00:57;5.32;;;4.78;;
11084;SDS011;5596;46.826;8.650;2022-09-01T13:03:27;5.97;;;5.35;;
11084;SDS011;5596;46.826;8.650;2022-09-01T13:05:55;5.38;;;4.82;;
11084;SDS011;5596;46.826;8.650;2022-09-01T13:08:24;5.20;;;4.47;;
11084;SDS011;5596;46.826;8.650;2022-09-01T13:10:53;5.47;;;4.97;;
11084;SDS011;5596;46.826;8.650;2022-09-01T13:13:23;6.35;;;4.85;;
11084;SDS011;5596;46.826;8.650;2022-09-01T13:15:53;6.05;;;4.80;;
11084;SDS011;5596;46.826;8.650;2022-09-01T13:18:24;5.38;;;4.90;;
11084;SDS011;5596;46.826;8.650;2022-09-01T13:20:52;5.50;;;5.00;;
11084;SDS011;5596;46.826;8.650;2022-09-01T13:23:20;6.90;;;4.57;;
11084;SDS011;5596;46.826;8.650;2022-09-01T13:25:49;5.38;;;4.88;;
11084;SDS011;5596;46.826;8.650;2022-09-01T13:28:16;8.75;;;5.22;;
11084;SDS011;5596;46.826;8.650;2022-09-01T13:30:46;6.15;;;5.10;;
11084;SDS011;5596;46.826;8.650;2022-09-01T13:33:19;5.25;;;4.63;;
11084;SDS011;5596;46.826;8.650;2022-09-01T13:35:46;5.30;;;4.53;;
11084;SDS011;5596;46.826;8.650;2022-09-01T13:38:14;5.97;;;4.75;;
11084;SDS011;5596;46.826;8.650;2022-09-01T13:40:41;5.13;;;4.57;;
11084;SDS011;5596;46.826;8.650;2022-09-01T13:43:11;5.03;;;4.63;;
11084;SDS011;5596;46.826;8.650;2022-09-01T13:45:39;5.13;;;4.63;;
11084;SDS011;5596;46.826;8.650;2022-09-01T13:48:06;6.25;;;5.13;;
11084;SDS011;5596;46.826;8.650;2022-09-01T13:50:35;6.03;;;5.00;;
11084;SDS011;5596;46.826;8.650;2022-09-01T13:53:04;6.05;;;5.10;;
11084;SDS011;5596;46.826;8.650;2022-09-01T13:55:32;5.63;;;5.03;;
11084;SDS011;5596;46.826;8.650;2022-09-01T13:58:00;6.68;;;4.82;;
11084;SDS011;5596;46.826;8.650;2022-09-01T14:00:29;6.78;;;4.53;;
11084;SDS011;5596;46.826;8.650;2022-09-01T14:02:58;5.40;;;4.90;;
11084;SDS011;5596;46.826;8.650;2022-09-01T14:05:29;7.20;;;4.85;;
11084;SDS011;5596;46.826;8.650;2022-09-01T14:07:58;4.82;;;4.43;;
11084;SDS011;5596;46.826;8.650;2022-09-01T14:10:27;5.20;;;4.70;;
11084;SDS011;5596;46.826;8.650;2022-09-01T14:12:56;5.13;;;4.60;;
11084;SDS011;5596;46.826;8.650;2022-09-01T14:15:23;5.25;;;4.85;;
11084;SDS011;5596;46.826;8.650;2022-09-01T14:17:52;5.53;;;5.03;;
11084;SDS011;5596;46.826;8.650;2022-09-01T14:20:21;5.05;;;4.60;;
11084;SDS011;5596;46.826;8.650;2022-09-01T14:22:50;6.10;;;4.82;;
11084;SDS011;5596;46.826;8.650;2022-09-01T14:25:19;5.60;;;5.10;;
11084;SDS011;5596;46.826;8.650;2022-09-01T14:27:46;5.78;;;4.72;;
11084;SDS011;5596;46.826;8.650;2022-09-01T14:30:15;6.57;;;4.97;;
11084;SDS011;5596;46.826;8.650;2022-09-01T14:32:44;8.80;;;5.35;;
11084;SDS011;5596;46.826;8.650;2022-09-01T14:35:13;6.72;;;4.68;;
11084;SDS011;5596;46.826;8.650;2022-09-01T14:37:42;5.65;;;4.80;;
11084;SDS011;5596;46.826;8.650;2022-09-01T14:40:10;5.22;;;4.72;;
11084;SDS011;5596;46.826;8.650;2022-09-01T14:42:40;5.88;;;4.80;;
11084;SDS011;5596;46.826;8.650;2022-09-01T14:45:11;5.32;;;4.82;;
11084;SDS011;5596;46.826;8.650;2022-09-01T14:47:40;6.85;;;5.35;;
11084;SDS011;5596;46.826;8.650;2022-09-01T14:50:08;4.93;;;4.40;;
11084;SDS011;5596;46.826;8.650;2022-09-01T14:52:36;5.18;;;4.68;;
11084;SDS011;5596;46.826;8.650;2022-09-01T14:55:03;4.80;;;4.30;;
11084;SDS011;5596;46.826;8.650;2022-09-01T14:57:31;4.75;;;4.35;;
11084;SDS011;5596;46.826;8.650;2022-09-01T14:59:59;4.80;;;4.40;;
11084;SDS011;5596;46.826;8.650;2022-09-01T15:02:26;5.50;;;5.00;;
11084;SDS011;5596;46.826;8.650;2022-09-01T15:04:54;5.80;;;4.43;;
11084;SDS011;5596;46.826;8.650;2022-09-01T15:07:22;4.95;;;4.55;;
11084;SDS011;5596;46.826;8.650;2022-09-01T15:09:50;7.57;;;4.57;;
11084;SDS011;5596;46.826;8.650;2022-09-01T15:12:17;4.90;;;4.50;;
11084;SDS011;5596;46.826;8.650;2022-09-01T15:14:45;4.72;;;4.32;;
11084;SDS011;5596;46.826;8.650;2022-09-01T15:17:13;4.97;;;4.55;;
11084;SDS011;5596;46.826;8.650;2022-09-01T15:19:40;5.07;;;4.55;;
11084;SDS011;5596;46.826;8.650;2022-09-01T15:22:07;5.35;;;4.43;;
11084;SDS011;5596;46.826;8.650;2022-09-01T15:24:37;4.32;;;4.03;;
11084;SDS011;5596;46.826;8.650;2022-09-01T15:27:04;4.93;;;4.43;;
11084;SDS011;5596;46.826;8.650;2022-09-01T15:29:31;5.60;;;4.40;;
11084;SDS011;5596;46.826;8.650;2022-09-01T15:31:59;4.50;;;4.10;;
11084;SDS011;5596;46.826;8.650;2022-09-01T15:34:29;4.68;;;4.28;;
11084;SDS011;5596;46.826;8.650;2022-09-01T15:36:56;4.38;;;3.97;;
11084;SDS011;5596;46.826;8.650;2022-09-01T15:39:22;6.00;;;4.22;;
11084;SDS011;5596;46.826;8.650;2022-09-01T15:41:50;4.15;;;3.72;;